< < Back
Terminal Aerodrome Forecast


Current Version              Previous Versions:   1  2  3  4  5  6  7  8  9  

Terminal Aerodrome Forecast

903
FTUS42 KFFC 200334 AAA
TAFCSG
TAF AMD
KCSG 200334Z 2004/2024 36005KT P6SM -RA SCT040 OVC080
     FM200530 01003KT 6SM -RA BR FEW025 OVC050
     FM200700 02003KT 5SM -RA BR OVC025
     FM201000 05004KT 4SM -RA BR OVC015
     FM201700 05006KT P6SM VCSH OVC025
     FM202200 03005KT P6SM BKN035=



Latest METAR

871
SAUS70 KWBC 200500 RRA
MTRCSG
METAR KCSG 200451Z AUTO 00000KT 8SM -RA OVC075 08/07 A3016 RMK AO2
SLP212 P0004 T00780067 401330022


USA.gov is the U.S. government's official web portal to all federal, state and local government web resources and services.